TimeEST,TemperatureF,Dew PointF,Humidity,Sea Level PressureIn,VisibilityMPH,Wind Direction,Wind SpeedMPH,Gust SpeedMPH,PrecipitationIn,Events,Conditions,WindDirDegrees,DateUTC
12:53 AM,34.0,18.0,52,29.72,10.0,Calm,Calm,-,N/A,,Overcast,0,2013-02-14 05:53:00
1:53 AM,33.1,19.9,59,29.78,10.0,Calm,Calm,-,N/A,,Overcast,0,2013-02-14 06:53:00
2:53 AM,32.0,21.0,64,29.76,10.0,Calm,Calm,-,N/A,,Overcast,0,2013-02-14 07:53:00
3:53 AM,33.1,19.9,59,29.77,10.0,Calm,Calm,-,N/A,,Overcast,0,2013-02-14 08:53:00
4:53 AM,32.0,19.9,61,29.78,10.0,Calm,Calm,-,N/A,,Overcast,0,2013-02-14 09:53:00
5:53 AM,32.0,19.9,61,29.80,10.0,Calm,Calm,-,N/A,,Overcast,0,2013-02-14 10:53:00
6:53 AM,28.9,19.9,69,29.81,10.0,Calm,Calm,-,N/A,,Clear,0,2013-02-14 11:53:00
7:53 AM,32.0,19.9,61,29.84,10.0,North,3.5,-,N/A,,Clear,10,2013-02-14 12:53:00
8:53 AM,34.0,19.9,56,29.84,10.0,Variable,4.6,-,N/A,,Clear,0,2013-02-14 13:53:00
9:53 AM,36.0,17.1,46,29.86,10.0,Variable,5.8,-,N/A,,Clear,0,2013-02-14 14:53:00
10:53 AM,37.9,14.0,38,29.87,10.0,Variable,6.9,-,N/A,,Scattered Clouds,0,2013-02-14 15:53:00
11:53 AM,39.9,14.0,35,29.87,10.0,Variable,4.6,-,N/A,,Scattered Clouds,0,2013-02-14 16:53:00
12:53 PM,39.9,12.9,33,29.87,10.0,NNW,8.1,-,N/A,,Clear,340,2013-02-14 17:53:00
1:53 PM,41.0,15.1,35,29.88,10.0,Variable,4.6,-,N/A,,Clear,0,2013-02-14 18:53:00
2:53 PM,41.0,15.1,35,29.89,10.0,Variable,4.6,-,N/A,,Clear,0,2013-02-14 19:53:00
3:53 PM,39.9,15.1,36,29.89,10.0,Variable,4.6,-,N/A,,Clear,0,2013-02-14 20:53:00
4:53 PM,37.0,15.1,41,29.93,10.0,Calm,Calm,-,N/A,,Clear,0,2013-02-14 21:53:00
5:53 PM,30.0,19.0,64,29.96,10.0,Calm,Calm,-,N/A,,Clear,0,2013-02-14 22:53:00
6:53 PM,26.1,18.0,71,29.99,10.0,Calm,Calm,-,N/A,,Clear,0,2013-02-14 23:53:00
7:53 PM,26.1,19.0,75,30.00,10.0,Calm,Calm,-,N/A,,Overcast,0,2013-02-15 00:53:00
8:53 PM,25.0,18.0,75,30.00,10.0,Calm,Calm,-,N/A,,Clear,0,2013-02-15 01:53:00
9:53 PM,24.1,18.0,77,30.01,10.0,Calm,Calm,-,N/A,,Clear,0,2013-02-15 02:53:00
10:53 PM,23.0,18.0,81,30.00,10.0,Calm,Calm,-,N/A,,Mostly Cloudy,0,2013-02-15 03:53:00
11:53 PM,21.9,17.1,82,30.01,10.0,Calm,Calm,-,N/A,,Scattered Clouds,0,2013-02-15 04:53:00